Time;durP1;ratioP1;P1;durP2;ratioP2;P2;SDS_P1;SDS_P2;PMS_P1;PMS_P2;Temp;Humidity;BMP_temperature;BMP_pressure;BME280_temperature;BME280_humidity;BME280_pressure;Samples;Min_cycle;Max_cycle;Signal;HPM_P1;HPM_P2
2023/03/15 00:00:09;;;;;;;4.13;2.00;;;3.50;99.90;;;-141.84;70.06;19029.44;5070496;28;20208;-77
2023/03/15 00:02:37;;;;;;;6.33;1.97;;;3.40;99.90;;;-141.84;68.99;19021.31;5067245;28;20582;-77
2023/03/15 00:05:06;;;;;;;5.30;2.07;;;3.40;99.90;;;-141.84;69.21;19039.59;5070757;28;20202;-76
2023/03/15 00:07:34;;;;;;;6.67;1.87;;;3.30;99.90;;;-141.84;70.42;19027.41;5070448;28;20597;-76
2023/03/15 00:10:03;;;;;;;4.87;1.80;;;3.20;99.90;;;-141.84;71.07;19019.28;5067917;28;20201;-75
2023/03/15 00:12:33;;;;;;;10.93;2.13;;;3.20;99.90;;;-141.84;71.04;19053.81;5071642;28;20211;-76
2023/03/15 00:15:01;;;;;;;8.63;2.97;;;3.20;99.90;;;-141.84;71.25;19043.66;5070860;28;20254;-75
2023/03/15 00:17:33;;;;;;;5.60;2.27;;;3.20;99.90;;;-141.84;71.40;19033.50;5069948;28;20216;-74
2023/03/15 00:20:03;;;;;;;6.07;2.30;;;3.20;99.90;;;-141.84;70.91;18998.94;5066764;28;20233;-67
2023/03/15 00:22:31;;;;;;;4.83;1.70;;;3.20;99.90;;;-141.84;70.99;19021.31;5067915;28;20228;-66
2023/03/15 00:24:59;;;;;;;3.73;1.83;;;3.20;99.90;;;-141.84;71.04;19033.50;5067975;28;20209;-67
2023/03/15 00:27:27;;;;;;;4.70;1.87;;;3.20;99.90;;;-141.84;70.57;19045.69;5068728;28;20204;-65
2023/03/15 00:29:57;;;;;;;6.47;2.13;;;3.30;99.90;;;-141.84;70.73;19019.28;5068800;28;20197;-78
2023/03/15 00:32:25;;;;;;;6.53;1.70;;;3.30;99.90;;;-141.84;69.69;19041.63;5067955;28;20201;-77
2023/03/15 00:34:53;;;;;;;6.10;1.80;;;3.30;99.90;;;-141.84;69.85;19057.88;5069996;28;20195;-77
2023/03/15 00:37:24;;;;;;;7.07;1.63;;;3.30;99.90;;;-141.84;69.71;19082.25;5070305;28;20286;-77
2023/03/15 00:39:54;;;;;;;6.40;2.00;;;3.30;99.90;;;-141.84;69.86;19029.44;5072389;28;20221;-77
2023/03/15 00:42:26;;;;;;;5.50;2.03;;;3.40;99.90;;;-141.84;69.65;19043.66;5069642;28;20223;-77
2023/03/15 00:44:56;;;;;;;6.40;1.77;;;3.40;99.90;;;-141.84;68.78;19059.91;5070325;28;20226;-76
2023/03/15 00:47:24;;;;;;;8.00;2.00;;;3.40;99.90;;;-141.84;69.57;19051.78;5071666;28;20202;-76
2023/03/15 00:49:52;;;;;;;7.53;1.97;;;3.40;99.90;;;-141.84;69.85;19027.41;5071122;28;20198;-75
2023/03/15 00:52:20;;;;;;;8.10;1.80;;;3.50;99.90;;;-141.84;70.02;19021.31;5071619;28;20195;-75
2023/03/15 00:54:52;;;;;;;6.40;1.90;;;3.30;99.90;;;-141.84;69.93;19021.31;5073093;28;20204;-75
2023/03/15 00:57:21;;;;;;;5.17;2.00;;;3.30;99.90;;;-141.84;70.09;19019.28;5072499;28;20194;-74
2023/03/15 00:59:51;;;;;;;5.00;1.77;;;3.30;99.90;;;-141.84;70.22;19051.78;5072707;28;20214;-76
2023/03/15 01:02:21;;;;;;;8.83;2.00;;;3.20;99.90;;;-141.84;70.22;19023.34;5074608;28;20316;-76
2023/03/15 01:04:50;;;;;;;4.60;2.10;;;3.20;99.90;;;-141.84;70.03;19009.09;5072725;28;20619;-77
2023/03/15 01:07:18;;;;;;;5.60;2.10;;;3.20;99.90;;;-141.84;70.57;18996.91;5069394;28;20205;-76
2023/03/15 01:09:46;;;;;;;5.63;1.97;;;3.20;99.90;;;-141.84;70.17;19031.47;5071382;28;20199;-75
2023/03/15 01:12:15;;;;;;;5.23;1.70;;;3.10;99.90;;;-141.84;70.74;19009.09;5071933;28;20705;-77
2023/03/15 01:14:43;;;;;;;8.70;2.00;;;3.10;99.90;;;-141.84;70.46;19017.25;5070962;28;20200;-77
2023/03/15 01:17:12;;;;;;;5.53;1.90;;;3.00;99.90;;;-141.84;70.20;19057.88;5071411;28;20202;-78
2023/03/15 01:19:41;;;;;;;7.10;1.97;;;3.10;99.90;;;-141.84;69.83;19017.25;5071559;28;20200;-77
2023/03/15 01:22:09;;;;;;;6.97;2.00;;;3.10;99.90;;;-141.84;70.16;19025.38;5068674;28;20222;-78
2023/03/15 01:24:38;;;;;;;6.67;2.10;;;3.10;99.90;;;-141.84;69.47;19029.44;5070902;28;20511;-77
2023/03/15 01:27:06;;;;;;;6.50;2.20;;;3.00;99.90;;;-141.84;69.47;19041.63;5071872;28;20208;-77
2023/03/15 01:29:34;;;;;;;5.67;2.00;;;3.00;99.90;;;-141.84;69.48;19019.28;5071668;28;20202;-77
2023/03/15 01:32:02;;;;;;;7.70;2.50;;;3.00;99.90;;;-141.84;68.93;19055.84;5074110;28;20203;-77
2023/03/15 01:34:30;;;;;;;3.70;2.23;;;3.00;99.90;;;-141.84;69.22;19037.56;5071050;28;20238;-76
2023/03/15 01:37:01;;;;;;;3.87;1.60;;;3.00;99.90;;;-141.84;69.52;19000.97;5071172;28;20201;-76
2023/03/15 01:39:30;;;;;;;12.90;2.43;;;3.00;99.90;;;-141.84;69.36;19007.06;5070144;28;20205;-77
2023/03/15 01:41:58;;;;;;;3.57;1.90;;;2.90;99.90;;;-141.84;70.14;19013.16;5071740;28;20217;-77
2023/03/15 01:44:51;;;;;;;6.70;1.97;;;2.90;99.90;;;-141.84;69.06;19007.06;5072169;28;20198;-78
2023/03/15 01:47:20;;;;;;;4.93;2.17;;;2.80;99.90;;;-141.84;69.43;19076.16;5068754;28;20704;-78
2023/03/15 01:50:01;;;;;;;7.23;1.60;;;2.80;99.90;;;-141.84;69.92;19013.16;5068887;28;20194;-79
2023/03/15 01:52:36;;;;;;;4.67;1.60;;;2.80;99.90;;;-141.84;69.69;19037.56;5068902;28;20196;-75
2023/03/15 01:55:10;;;;;;;5.13;1.30;;;2.70;99.90;;;-141.84;70.26;18988.78;5067183;28;20664;-76
2023/03/15 01:57:44;;;;;;;6.17;1.63;;;2.70;99.90;;;-141.84;69.68;19021.31;5068772;28;20197;-77
2023/03/15 02:00:16;;;;;;;6.27;1.70;;;2.70;99.90;;;-141.84;70.14;18984.72;5066186;28;20203;-76
2023/03/15 02:02:49;;;;;;;9.17;2.13;;;2.60;99.90;;;-141.84;70.62;19003.00;5068559;28;20227;-77
2023/03/15 02:05:24;;;;;;;3.73;1.70;;;2.60;99.90;;;-141.84;70.68;18972.53;5066484;28;20197;-77
2023/03/15 02:07:55;;;;;;;5.50;2.27;;;2.50;99.90;;;-141.84;70.79;18990.81;5068490;28;20568;-75
2023/03/15 02:10:30;;;;;;;3.70;1.73;;;2.40;99.90;;;-141.84;70.34;18968.47;5068620;28;20279;-77
2023/03/15 02:12:59;;;;;;;5.40;1.70;;;2.50;99.90;;;-141.84;69.87;19013.16;5067913;28;20198;-76
2023/03/15 02:15:28;;;;;;;4.80;1.53;;;2.40;99.90;;;-141.84;69.15;19003.00;5068208;28;20205;-75
2023/03/15 02:17:56;;;;;;;7.53;1.90;;;2.50;99.90;;;-141.84;70.29;18958.31;5072742;28;20679;-75
2023/03/15 02:20:37;;;;;;;4.33;1.90;;;2.40;99.90;;;-141.84;70.22;18996.91;5067632;28;20228;-74
2023/03/15 02:23:11;;;;;;;10.53;2.20;;;2.30;99.90;;;-141.84;69.98;19025.38;5065071;28;20214;-76
2023/03/15 02:25:52;;;;;;;4.07;1.60;;;2.40;99.90;;;-141.84;70.25;18952.22;5071117;28;20204;-77
2023/03/15 02:28:22;;;;;;;3.97;2.10;;;2.40;99.90;;;-141.84;71.13;18978.63;5067492;28;20295;-77
2023/03/15 02:30:51;;;;;;;4.60;2.10;;;2.30;99.90;;;-141.84;70.99;18958.31;5067878;28;20193;-75
2023/03/15 02:33:25;;;;;;;3.87;2.40;;;2.30;99.90;;;-141.84;70.92;18978.63;5067853;28;20700;-74
2023/03/15 02:35:55;;;;;;;4.97;2.53;;;2.30;99.90;;;-141.84;71.57;18984.72;5069230;28;20540;-76
2023/03/15 02:38:23;;;;;;;6.90;2.03;;;2.20;99.90;;;-141.84;71.69;18968.47;5067958;28;20591;-77
2023/03/15 02:40:53;;;;;;;4.53;2.67;;;2.20;99.90;;;-141.84;71.13;18972.53;5068569;28;20201;-77
2023/03/15 02:43:29;;;;;;;6.87;2.10;;;2.20;99.90;;;-141.84;71.23;18954.25;5067778;28;20212;-76
2023/03/15 02:45:59;;;;;;;4.37;2.37;;;2.10;99.90;;;-141.84;71.61;18974.56;5063793;28;20522;-76
2023/03/15 02:48:28;;;;;;;5.53;2.13;;;2.10;99.90;;;-141.84;72.43;18966.44;5068249;28;20201;-76
2023/03/15 02:50:56;;;;;;;6.67;2.40;;;2.10;99.90;;;-141.84;72.08;18964.41;5066309;28;20691;-77
2023/03/15 02:53:24;;;;;;;4.10;1.93;;;2.10;99.90;;;-141.84;72.11;18972.53;5068402;28;20201;-76
2023/03/15 02:55:52;;;;;;;5.93;2.53;;;2.00;99.90;;;-141.84;72.43;18986.75;5067748;28;20235;-76
2023/03/15 02:58:22;;;;;;;5.10;2.50;;;2.00;99.90;;;-141.84;72.42;18940.03;5067799;28;20205;-74
2023/03/15 03:00:52;;;;;;;6.97;2.23;;;2.00;99.90;;;-141.84;72.84;18950.19;5066569;28;20201;-77
2023/03/15 03:03:21;;;;;;;6.13;2.40;;;1.90;99.90;;;-141.84;72.29;18923.78;5068194;28;20328;-78
2023/03/15 03:05:49;;;;;;;8.63;2.80;;;2.20;99.90;;;-141.84;73.01;18960.34;5067647;28;20224;-79
2023/03/15 03:08:17;;;;;;;10.80;2.97;;;1.90;99.90;;;-141.84;73.22;18946.13;5067491;28;20204;-77
2023/03/15 03:10:45;;;;;;;7.00;2.73;;;1.80;99.90;;;-141.84;73.24;18944.09;5067596;28;20604;-77
2023/03/15 03:13:13;;;;;;;6.50;2.33;;;1.80;99.90;;;-141.84;73.18;18948.16;5068085;28;20204;-78
2023/03/15 03:15:44;;;;;;;5.97;2.80;;;1.80;99.90;;;-141.84;72.64;18935.97;5067843;28;20200;-78
2023/03/15 03:18:12;;;;;;;6.40;3.00;;;1.80;99.90;;;-141.84;72.37;18944.09;5070049;28;20738;-78
2023/03/15 03:20:40;;;;;;;7.90;3.73;;;1.80;99.90;;;-141.84;71.48;18956.28;5068429;28;20232;-77
2023/03/15 03:23:08;;;;;;;9.90;4.00;;;1.80;99.90;;;-141.84;71.97;18950.19;5070542;28;20555;-77
2023/03/15 03:25:36;;;;;;;10.17;3.87;;;1.80;99.90;;;-141.84;71.13;18958.31;5071020;28;20204;-77
2023/03/15 03:28:04;;;;;;;6.77;4.30;;;1.80;99.90;;;-141.84;71.85;18960.34;5071369;28;20197;-77
2023/03/15 03:30:35;;;;;;;10.60;4.60;;;1.70;99.90;;;-141.84;72.59;18915.63;5068143;28;20203;-78
2023/03/15 03:33:05;;;;;;;5.97;4.23;;;1.70;99.90;;;-141.84;72.52;18940.03;5070868;28;20197;-77
2023/03/15 03:35:33;;;;;;;8.13;3.60;;;1.80;99.90;;;-141.84;72.23;18952.22;5071394;28;20197;-78
2023/03/15 03:38:01;;;;;;;5.47;3.40;;;1.70;99.90;;;-141.84;71.28;18940.03;5070534;28;20323;-78
2023/03/15 03:40:29;;;;;;;4.50;2.70;;;1.70;99.90;;;-141.84;71.43;18968.47;5070675;28;20201;-77
2023/03/15 03:42:57;;;;;;;4.23;2.50;;;1.70;99.90;;;-141.84;72.23;18935.97;5070945;28;20680;-77
2023/03/15 03:45:25;;;;;;;5.47;2.77;;;1.70;99.90;;;-141.84;72.17;18974.56;5072140;28;20220;-78
2023/03/15 03:47:54;;;;;;;4.87;2.53;;;1.70;99.90;;;-141.84;72.36;18958.31;5070689;28;20208;-79
2023/03/15 03:50:23;;;;;;;3.70;2.80;;;1.60;99.90;;;-141.84;73.20;18905.47;5069532;28;20216;-76
2023/03/15 03:52:52;;;;;;;8.20;3.73;;;1.60;99.90;;;-141.84;73.43;18925.81;5071179;28;20193;-76
2023/03/15 03:55:24;;;;;;;9.00;3.50;;;1.60;99.90;;;-141.84;73.27;18935.97;5070635;28;20208;-77
2023/03/15 03:57:52;;;;;;;7.33;2.97;;;1.60;99.90;;;-141.84;72.71;18938.00;5073510;28;20193;-77
2023/03/15 04:00:21;;;;;;;7.60;3.07;;;1.50;99.90;;;-141.84;72.67;18935.97;5072730;28;20223;-79
2023/03/15 04:02:53;;;;;;;6.63;2.50;;;1.60;99.90;;;-141.84;72.46;18958.31;5071482;28;20431;-78
2023/03/15 04:05:23;;;;;;;6.10;2.60;;;1.50;99.90;;;-141.84;71.78;18938.00;5070831;28;20325;-79
2023/03/15 04:07:51;;;;;;;4.63;2.50;;;1.60;99.90;;;-141.84;72.12;18940.03;5067904;28;20204;-77
2023/03/15 04:10:25;;;;;;;8.17;2.47;;;1.60;99.90;;;-141.84;72.78;18940.03;5070909;28;20197;-77
2023/03/15 04:12:55;;;;;;;4.83;2.23;;;1.50;99.90;;;-141.84;72.07;18929.88;5065760;28;20242;-79
2023/03/15 04:15:24;;;;;;;8.47;2.70;;;1.60;99.90;;;-141.84;72.02;18956.28;5061669;28;20220;-78
2023/03/15 04:17:54;;;;;;;3.90;2.00;;;1.60;99.90;;;-141.84;72.56;18907.50;5071281;28;20201;-78
2023/03/15 04:20:26;;;;;;;8.03;3.10;;;1.50;99.90;;;-141.84;72.76;18917.66;5066869;28;20240;-78
2023/03/15 04:22:54;;;;;;;5.30;2.67;;;1.50;99.90;;;-141.84;72.57;18976.59;5058815;28;20209;-77
2023/03/15 04:25:25;;;;;;;5.00;3.40;;;1.50;99.90;;;-141.84;72.11;18948.16;5071366;28;20208;-79
2023/03/15 04:27:58;;;;;;;5.53;2.37;;;1.50;99.90;;;-141.84;71.78;18938.00;5063582;28;20193;-79
2023/03/15 04:30:27;;;;;;;6.53;2.60;;;1.60;99.90;;;-141.84;72.50;18933.94;5056759;28;20203;-78
2023/03/15 04:32:57;;;;;;;4.67;2.00;;;1.50;99.90;;;-141.84;73.08;18942.06;5070967;28;20198;-77
2023/03/15 04:35:29;;;;;;;5.93;2.70;;;1.50;99.90;;;-141.84;74.03;18901.41;5071180;28;20193;-77
2023/03/15 04:37:58;;;;;;;6.00;2.80;;;1.50;99.90;;;-141.84;74.17;18889.22;5069887;28;20200;-78
2023/03/15 04:40:27;;;;;;;8.10;2.57;;;1.40;99.90;;;-141.84;74.13;18913.59;5069915;28;20200;-77
2023/03/15 04:42:56;;;;;;;7.87;2.90;;;1.40;99.90;;;-141.84;74.04;18940.03;5070519;28;20224;-78
2023/03/15 04:45:25;;;;;;;4.07;1.80;;;1.30;99.90;;;-141.84;73.53;18935.97;5070870;28;20422;-78
2023/03/15 04:47:55;;;;;;;6.30;2.73;;;1.40;99.90;;;-141.84;73.19;18911.56;5077810;28;20196;-77
2023/03/15 04:50:24;;;;;;;5.63;3.03;;;1.40;99.90;;;-141.84;73.17;18935.97;5072653;28;20193;-77
2023/03/15 04:52:54;;;;;;;3.57;2.90;;;1.30;99.90;;;-141.84;73.63;18887.19;5061389;28;20200;-77
2023/03/15 04:55:23;;;;;;;8.63;2.80;;;1.30;99.90;;;-141.84;73.75;18913.59;5060174;28;20298;-78
2023/03/15 04:57:51;;;;;;;4.13;2.10;;;1.40;99.90;;;-141.84;73.81;18903.44;5070993;28;20197;-78
2023/03/15 05:00:20;;;;;;;5.20;2.37;;;1.30;99.90;;;-141.84;73.55;18933.94;5068037;28;20293;-78
2023/03/15 05:02:53;;;;;;;5.90;2.20;;;1.40;99.90;;;-141.84;73.60;18917.66;5062418;28;20289;-77
2023/03/15 05:05:23;;;;;;;6.37;2.33;;;1.40;99.90;;;-141.84;72.92;18927.84;5070421;28;20562;-78
2023/03/15 05:07:53;;;;;;;4.67;2.40;;;1.50;99.90;;;-141.84;73.34;18931.91;5063382;28;20220;-77
2023/03/15 05:10:22;;;;;;;8.13;2.73;;;1.50;99.90;;;-141.84;72.99;18940.03;5058293;28;20230;-78
2023/03/15 05:12:50;;;;;;;5.70;2.30;;;1.60;99.90;;;-141.84;72.50;18938.00;5069773;28;20197;-79
2023/03/15 05:15:18;;;;;;;5.43;2.70;;;1.60;99.90;;;-141.84;72.00;18933.94;5055183;28;20289;-78
2023/03/15 05:17:47;;;;;;;3.60;2.00;;;1.70;99.90;;;-141.84;71.76;18962.38;5067833;28;20196;-78
2023/03/15 05:20:16;;;;;;;6.43;2.27;;;1.80;99.90;;;-141.84;70.48;18980.66;5069672;28;20332;-80
2023/03/15 05:22:44;;;;;;;6.70;2.80;;;1.90;99.90;;;-141.84;69.88;18988.78;5068716;28;20205;-78
2023/03/15 05:25:14;;;;;;;7.30;1.97;;;2.00;99.90;;;-141.84;69.85;18986.75;5068915;28;20711;-75
2023/03/15 05:27:45;;;;;;;7.47;1.90;;;2.10;99.90;;;-141.84;70.46;18972.53;5068563;28;20701;-77
2023/03/15 05:30:15;;;;;;;6.80;2.00;;;2.10;99.90;;;-141.84;69.86;18964.41;5069256;28;20216;-79
2023/03/15 05:32:44;;;;;;;6.67;2.00;;;2.20;99.90;;;-141.84;69.38;18978.63;5069528;28;20197;-76
2023/03/15 05:35:13;;;;;;;9.03;3.23;;;2.20;99.90;;;-141.84;69.73;18964.41;5069263;28;20201;-77
2023/03/15 05:37:41;;;;;;;6.13;2.50;;;2.30;99.90;;;-141.84;68.71;19013.16;5068449;28;20224;-77
2023/03/15 05:40:11;;;;;;;3.57;2.00;;;2.40;99.90;;;-141.84;69.34;19005.03;5067775;28;20298;-77
2023/03/15 05:42:41;;;;;;;8.27;2.70;;;2.50;99.90;;;-141.84;69.07;19003.00;5068464;28;20213;-77
2023/03/15 05:45:11;;;;;;;5.97;2.10;;;2.50;99.90;;;-141.84;68.97;19000.97;5068630;28;20238;-75
2023/03/15 05:47:39;;;;;;;5.53;1.93;;;2.50;99.90;;;-141.84;68.50;19003.00;5068571;28;20210;-78
2023/03/15 05:50:08;;;;;;;6.10;2.43;;;2.60;99.90;;;-141.84;68.29;19027.41;5068552;28;20197;-77
2023/03/15 05:52:36;;;;;;;4.77;1.97;;;2.60;99.90;;;-141.84;68.05;19011.13;5068611;28;20195;-75
2023/03/15 05:55:05;;;;;;;5.80;2.20;;;2.60;99.90;;;-141.84;67.78;19013.16;5068426;28;20195;-77
2023/03/15 05:57:34;;;;;;;7.33;2.57;;;2.70;99.90;;;-141.84;66.51;19074.13;5068953;28;20223;-77
2023/03/15 06:00:07;;;;;;;7.53;2.07;;;2.90;99.90;;;-141.84;66.70;19059.91;5067497;28;20195;-76
2023/03/15 06:02:36;;;;;;;6.87;2.03;;;2.90;99.90;;;-141.84;66.00;19029.44;5066190;28;20193;-76
2023/03/15 06:05:04;;;;;;;11.20;2.27;;;3.00;99.90;;;-141.84;65.61;19063.97;5069341;28;20256;-76
2023/03/15 06:07:33;;;;;;;5.73;2.10;;;3.20;99.90;;;-141.84;66.43;19037.56;5067531;28;20649;-76
2023/03/15 06:10:01;;;;;;;4.07;1.77;;;3.30;99.90;;;-141.84;64.79;19057.88;5068331;28;20218;-77
2023/03/15 06:12:30;;;;;;;8.10;1.87;;;3.40;99.90;;;-141.84;65.52;19072.09;5067705;28;20213;-76
2023/03/15 06:14:58;;;;;;;5.40;1.63;;;3.40;99.90;;;-141.84;65.39;19066.00;5064831;28;20206;-77
2023/03/15 06:17:27;;;;;;;6.47;1.80;;;3.40;99.90;;;-141.84;65.87;19070.06;5068169;28;20213;-78
2023/03/15 06:19:55;;;;;;;7.07;1.83;;;3.50;99.90;;;-141.84;65.98;19090.38;5067583;28;20258;-77
2023/03/15 06:22:23;;;;;;;5.80;1.70;;;3.40;99.90;;;-141.84;65.53;19080.22;5068410;28;20212;-77
2023/03/15 06:24:52;;;;;;;5.90;2.10;;;3.40;99.90;;;-141.84;66.33;19080.22;5067751;28;20705;-77
2023/03/15 06:27:20;;;;;;;3.93;1.67;;;3.40;99.90;;;-141.84;67.03;19066.00;5069574;28;20206;-75
2023/03/15 06:29:50;;;;;;;5.67;1.80;;;3.40;99.90;;;-141.84;67.03;19025.38;5068011;28;20227;-78
2023/03/15 06:32:18;;;;;;;7.67;1.90;;;3.30;99.90;;;-141.84;67.62;19053.81;5068916;28;20213;-75
2023/03/15 06:34:47;;;;;;;6.77;1.53;;;3.40;99.90;;;-141.84;68.32;19035.53;5066830;28;20195;-75
2023/03/15 06:37:16;;;;;;;4.90;1.83;;;3.30;99.90;;;-141.84;69.05;19033.50;5068917;28;20222;-76
2023/03/15 06:40:02;;;;;;;6.10;1.97;;;3.30;99.90;;;-141.84;69.17;19021.31;5067938;28;20201;-76
2023/03/15 06:42:31;;;;;;;7.73;2.03;;;3.30;99.90;;;-141.84;69.65;19049.75;5067547;28;20204;-76
2023/03/15 06:45:00;;;;;;;6.20;2.70;;;3.20;99.90;;;-141.84;70.28;19023.34;5067715;28;20221;-76
2023/03/15 06:47:28;;;;;;;7.33;2.20;;;3.70;99.90;;;-141.84;69.95;19041.63;5063998;28;20214;-77
2023/03/15 06:49:57;;;;;;;6.50;2.00;;;3.30;99.90;;;-141.84;70.33;19033.50;5065979;28;20242;-75
2023/03/15 06:52:26;;;;;;;6.23;1.80;;;3.30;99.90;;;-141.84;70.26;19045.69;5068567;28;20212;-76
2023/03/15 06:54:54;;;;;;;7.30;1.90;;;3.40;99.90;;;-141.84;69.57;19055.84;5071615;28;20210;-76
2023/03/15 06:57:23;;;;;;;6.23;2.10;;;3.40;99.90;;;-141.84;69.21;19074.13;5071945;28;20208;-76
2023/03/15 06:59:52;;;;;;;4.50;1.63;;;3.50;99.90;;;-141.84;68.52;19041.63;5071995;28;20215;-77
2023/03/15 07:02:21;;;;;;;4.67;1.90;;;3.50;99.90;;;-141.84;68.66;19084.28;5071592;28;20199;-75
2023/03/15 07:04:49;;;;;;;6.00;2.13;;;3.50;99.90;;;-141.84;68.87;19059.91;5070944;28;20241;-77
2023/03/15 07:07:19;;;;;;;5.20;2.10;;;3.50;99.90;;;-141.84;70.24;19021.31;5072042;28;20203;-77
2023/03/15 07:09:47;;;;;;;5.30;1.67;;;3.50;99.90;;;-141.84;70.63;19039.59;5071637;28;20216;-76
2023/03/15 07:12:15;;;;;;;4.83;1.73;;;3.40;99.90;;;-141.84;71.49;19033.50;5072240;28;20210;-78
2023/03/15 07:14:45;;;;;;;7.37;1.80;;;3.30;99.90;;;-141.84;72.91;19025.38;5071332;28;20686;-76
2023/03/15 07:17:13;;;;;;;6.90;2.07;;;3.20;99.90;;;-141.84;73.74;19027.41;5072281;28;20215;-77
2023/03/15 07:19:41;;;;;;;5.97;1.60;;;3.20;99.90;;;-141.84;74.25;19041.63;5071325;28;20205;-74
2023/03/15 07:22:25;;;;;;;4.93;1.87;;;3.10;99.90;;;-141.84;74.94;18998.94;5068056;28;20334;-66
2023/03/15 07:24:53;;;;;;;7.90;2.03;;;3.00;99.90;;;-141.84;75.49;18958.31;5066391;28;20242;-68
2023/03/15 07:27:21;;;;;;;10.40;2.97;;;2.90;99.90;;;-141.84;76.56;18992.84;5066768;28;20209;-69
2023/03/15 07:29:51;;;;;;;6.97;3.50;;;2.90;99.90;;;-141.84;76.77;18956.28;5065943;28;20202;-70
2023/03/15 07:32:19;;;;;;;6.87;3.00;;;2.90;99.90;;;-141.84;76.77;18948.16;5067477;28;20202;-69
2023/03/15 07:34:47;;;;;;;7.80;3.30;;;2.80;99.90;;;-141.84;77.81;18970.50;5070737;28;20440;-69
2023/03/15 07:37:16;;;;;;;8.97;3.07;;;2.80;99.90;;;-141.84;78.45;18972.53;5070918;28;20210;-70
2023/03/15 07:39:45;;;;;;;5.40;2.50;;;2.80;99.90;;;-141.84;77.95;18976.59;5070034;28;20612;-69
2023/03/15 07:42:14;;;;;;;8.83;3.10;;;2.90;99.90;;;-141.84;78.20;18968.47;5070504;28;20208;-69
2023/03/15 07:44:42;;;;;;;4.67;3.10;;;2.80;99.90;;;-141.84;78.90;18964.41;5070142;28;20428;-70
2023/03/15 07:47:11;;;;;;;8.60;3.20;;;2.80;99.90;;;-141.84;78.99;18948.16;5070497;28;20657;-68
2023/03/15 07:49:39;;;;;;;6.73;2.90;;;2.70;99.90;;;-141.84;78.58;18964.41;5070598;28;20205;-68
2023/03/15 07:52:08;;;;;;;10.77;2.93;;;2.70;99.90;;;-141.84;79.10;18988.78;5070248;28;20300;-68
2023/03/15 07:54:36;;;;;;;4.20;2.57;;;2.80;99.90;;;-141.84;79.33;18938.00;5069643;28;20204;-69
2023/03/15 07:57:07;;;;;;;6.13;3.50;;;2.80;99.90;;;-141.84;79.92;18950.19;5070699;28;20198;-69
2023/03/15 07:59:35;;;;;;;9.97;4.07;;;2.80;99.90;;;-141.84;79.87;18974.56;5070583;28;20191;-69
2023/03/15 08:02:03;;;;;;;8.10;2.77;;;2.80;99.90;;;-141.84;79.63;18980.66;5068852;28;20202;-68
2023/03/15 08:04:31;;;;;;;8.97;3.93;;;2.80;99.90;;;-141.84;79.42;18974.56;5069022;28;20214;-70
2023/03/15 08:07:02;;;;;;;8.57;3.43;;;2.90;99.90;;;-141.84;78.46;18956.28;5068093;28;20731;-69
2023/03/15 08:09:33;;;;;;;8.83;3.93;;;3.00;99.90;;;-141.84;78.62;19017.25;5070822;28;20224;-71
2023/03/15 08:12:02;;;;;;;8.30;3.70;;;3.00;99.90;;;-141.84;78.71;18990.81;5069326;28;20288;-69
2023/03/15 08:14:32;;;;;;;13.90;3.93;;;3.10;99.90;;;-141.84;76.92;18994.88;5069477;28;20231;-74
2023/03/15 08:17:00;;;;;;;5.73;3.23;;;3.10;99.90;;;-141.84;77.58;18988.78;5069836;28;20203;-74
2023/03/15 08:19:28;;;;;;;8.10;3.60;;;3.30;99.90;;;-141.84;77.90;19023.34;5069425;28;20195;-73
2023/03/15 08:21:56;;;;;;;8.43;3.80;;;3.40;99.90;;;-141.84;77.14;19035.53;5069640;28;20200;-72
2023/03/15 08:24:25;;;;;;;8.87;3.50;;;3.60;99.90;;;-141.84;74.74;19066.00;5069968;28;20213;-73
2023/03/15 08:26:54;;;;;;;11.40;4.30;;;3.90;99.90;;;-141.84;74.16;19096.47;5070014;28;20221;-74
2023/03/15 08:29:22;;;;;;;8.07;4.40;;;4.00;99.90;;;-141.84;72.11;19118.84;5070218;28;20217;-74
2023/03/15 08:31:51;;;;;;;7.77;3.43;;;4.20;99.90;;;-141.84;72.55;19114.78;5069871;28;20778;-73
2023/03/15 08:34:20;;;;;;;6.93;3.30;;;4.40;99.90;;;-141.84;72.99;19120.88;5069916;28;20212;-72
2023/03/15 08:36:49;;;;;;;9.00;3.37;;;4.70;99.90;;;-141.84;71.69;19187.91;5068163;28;20204;-67
2023/03/15 08:39:17;;;;;;;7.93;2.97;;;4.90;99.90;;;-141.84;71.17;19157.44;5068657;28;20664;-67
2023/03/15 08:41:46;;;;;;;7.93;2.63;;;5.00;99.90;;;-141.84;71.11;19159.47;5069250;28;20204;-68
2023/03/15 08:44:14;;;;;;;7.20;3.00;;;5.10;99.90;;;-141.84;71.99;19110.72;5069029;28;20214;-75
2023/03/15 08:46:42;;;;;;;8.33;3.53;;;5.10;99.90;;;-141.84;72.22;19120.88;5070001;28;20600;-69
2023/03/15 08:49:12;;;;;;;7.90;3.60;;;5.00;99.90;;;-141.84;72.62;19092.41;5067542;28;20620;-67
2023/03/15 08:51:40;;;;;;;7.20;3.60;;;4.80;99.90;;;-141.84;72.69;19078.19;5069502;28;20207;-69
2023/03/15 08:54:08;;;;;;;9.23;3.40;;;4.60;99.90;;;-141.84;72.59;19059.91;5069481;28;20199;-67
2023/03/15 08:56:36;;;;;;;8.47;3.80;;;4.30;99.90;;;-141.84;73.10;19066.00;5068796;28;20590;-66
2023/03/15 08:59:04;;;;;;;8.40;3.33;;;4.30;99.90;;;-141.84;73.78;19066.00;5068596;28;20668;-67
2023/03/15 09:01:33;;;;;;;7.93;3.53;;;4.30;99.90;;;-141.84;74.53;19057.88;5069532;28;20204;-67
2023/03/15 09:04:03;;;;;;;12.33;3.67;;;4.30;99.90;;;-141.84;73.29;19094.44;5068821;28;20189;-68
2023/03/15 09:06:32;;;;;;;8.80;3.37;;;4.30;99.90;;;-141.84;72.23;19078.19;5068827;28;20231;-68
2023/03/15 09:09:00;;;;;;;6.70;3.00;;;4.50;99.90;;;-141.84;70.72;19102.56;5068524;28;20575;-67
2023/03/15 09:11:29;;;;;;;5.80;2.80;;;4.60;99.90;;;-141.84;69.81;19112.75;5069527;28;20199;-70
2023/03/15 09:13:57;;;;;;;9.30;3.00;;;4.70;99.90;;;-141.84;68.47;19169.63;5063198;28;20200;-67
2023/03/15 09:16:25;;;;;;;6.97;3.10;;;5.00;99.90;;;-141.84;67.80;19175.72;5056330;28;20220;-66
2023/03/15 09:18:53;;;;;;;6.10;2.67;;;5.20;99.90;;;-141.84;65.73;19226.53;5069382;28;20291;-67
2023/03/15 09:21:23;;;;;;;6.77;2.93;;;5.50;99.90;;;-141.84;65.54;19208.25;5064359;28;20227;-71
2023/03/15 09:23:53;;;;;;;4.70;2.50;;;5.60;99.90;;;-141.84;65.66;19232.63;5055297;28;20543;-65
2023/03/15 09:26:21;;;;;;;6.10;2.50;;;5.80;99.90;;;-141.84;63.46;19250.91;5067570;28;20746;-65
2023/03/15 09:28:49;;;;;;;4.67;2.97;;;5.80;99.90;;;-141.84;62.42;19289.53;5067844;28;20196;-67
2023/03/15 09:31:17;;;;;;;6.37;2.80;;;6.10;99.90;;;-141.84;62.43;19275.31;5063763;28;20213;-73
2023/03/15 09:33:46;;;;;;;4.20;2.73;;;6.20;99.90;;;-141.84;62.53;19299.69;5068926;28;20193;-63
2023/03/15 09:36:14;;;;;;;4.57;2.60;;;6.30;99.90;;;-141.84;60.86;19326.09;5068062;28;20211;-67
2023/03/15 09:38:43;;;;;;;5.20;2.80;;;6.40;99.90;;;-141.84;60.82;19330.16;5064345;28;20295;-66
2023/03/15 09:41:21;;;;;;;4.53;2.13;;;6.40;99.90;;;-141.84;59.69;19350.50;5063645;28;20224;-68
2023/03/15 09:44:11;;;;;;;6.20;2.30;;;6.60;99.90;;;-141.84;59.08;19354.56;5066531;28;20191;-68
2023/03/15 09:46:52;;;;;;;3.80;2.10;;;6.60;99.90;;;-141.84;58.85;19409.41;5067095;28;20897;-68
2023/03/15 09:49:37;;;;;;;4.83;2.27;;;6.90;99.90;;;-141.84;56.62;19423.66;5067168;28;20201;-70
2023/03/15 09:52:29;;;;;;;5.13;2.60;;;7.00;99.90;;;-141.84;59.00;19376.91;5065255;28;20211;-70
2023/03/15 09:55:03;;;;;;;3.77;1.83;;;6.80;99.90;;;-141.84;58.68;19370.81;5066960;28;20658;-68
2023/03/15 09:57:43;;;;;;;4.80;1.90;;;6.70;99.90;;;-141.84;57.62;19364.72;5064341;28;20198;-68
2023/03/15 10:00:19;;;;;;;2.27;1.40;;;6.70;99.90;;;-141.84;54.83;19435.84;5066798;28;20197;-69
2023/03/15 10:02:58;;;;;;;3.60;1.73;;;6.90;99.90;;;-141.84;54.50;19391.13;5067898;28;20196;-68
2023/03/15 10:05:37;;;;;;;1.50;1.30;;;6.90;99.90;;;-141.84;54.19;19431.78;5066968;28;20664;-64
2023/03/15 10:08:12;;;;;;;2.07;1.50;;;7.00;99.90;;;-141.84;55.07;19460.22;5065655;28;20193;-65
2023/03/15 10:10:51;;;;;;;3.53;1.57;;;7.10;99.90;;;-141.84;52.35;19474.44;5066126;28;20196;-65
2023/03/15 10:13:51;;;;;;;3.40;1.60;;;7.40;99.90;;;-141.84;53.76;19446.00;5068139;28;20193;-67
2023/03/15 10:16:37;;;;;;;2.90;1.80;;;7.40;99.90;;;-141.84;54.50;19441.94;5064696;28;20291;-68
2023/03/15 10:19:29;;;;;;;5.30;2.03;;;7.20;99.90;;;-141.84;54.92;19437.88;5068069;28;20200;-69
2023/03/15 10:22:03;;;;;;;3.47;2.13;;;7.30;99.90;;;-141.84;52.54;19496.81;5067467;28;20196;-66
2023/03/15 10:24:40;;;;;;;2.87;1.90;;;7.60;99.90;;;-141.84;53.70;19476.47;5067051;28;20200;-67